createdAt,value
2022-09-12T00:00:15.666Z,9.70
2022-09-12T00:03:16.918Z,10.80
2022-09-12T00:06:22.903Z,8.07
2022-09-12T00:09:24.504Z,10.73
2022-09-12T00:12:25.789Z,9.73
2022-09-12T00:15:27.050Z,10.13
2022-09-12T00:18:28.409Z,9.90
2022-09-12T00:21:29.666Z,10.90
2022-09-12T00:24:31.194Z,10.90
2022-09-12T00:27:32.421Z,9.27
2022-09-12T00:30:34.045Z,9.57
2022-09-12T00:33:35.742Z,10.77
2022-09-12T00:36:36.996Z,10.07
2022-09-12T00:39:38.390Z,10.65
2022-09-12T00:42:39.652Z,11.02
2022-09-12T00:45:42.519Z,11.35
2022-09-12T00:48:49.425Z,9.57
2022-09-12T00:51:52.645Z,9.43
2022-09-12T00:54:57.629Z,8.95
2022-09-12T00:58:07.970Z,13.32
2022-09-12T01:01:09.303Z,9.75
2022-09-12T01:04:11.428Z,9.68
2022-09-12T01:07:12.694Z,9.43
2022-09-12T01:10:14.485Z,9.73
2022-09-12T01:13:15.922Z,11.63
2022-09-12T01:16:17.359Z,9.20
2022-09-12T01:19:27.749Z,12.00
2022-09-12T01:22:38.152Z,9.25
2022-09-12T01:25:48.847Z,8.15
2022-09-12T01:28:53.218Z,11.02
2022-09-12T01:32:04.339Z,9.73
2022-09-12T01:35:27.441Z,8.63
2022-09-12T01:38:31.467Z,11.80
2022-09-12T01:41:39.574Z,11.88
2022-09-12T01:44:55.100Z,10.73
2022-09-12T01:48:04.235Z,10.65
2022-09-12T01:51:21.135Z,10.27
2022-09-12T01:54:26.011Z,10.45
2022-09-12T01:57:33.621Z,10.93
2022-09-12T02:00:37.672Z,10.35
2022-09-12T02:03:43.063Z,11.85
2022-09-12T02:06:47.287Z,9.52
2022-09-12T02:09:54.702Z,11.60
2022-09-12T02:13:03.675Z,10.38
2022-09-12T02:16:10.668Z,10.43
2022-09-12T02:19:16.354Z,9.45
2022-09-12T02:22:19.840Z,9.38
2022-09-12T02:25:22.037Z,11.68
2022-09-12T02:28:26.166Z,8.68
2022-09-12T02:31:28.906Z,7.93
2022-09-12T02:34:33.442Z,8.73
2022-09-12T02:37:34.655Z,8.43
2022-09-12T02:40:35.947Z,9.77
2022-09-12T02:43:37.814Z,10.40
2022-09-12T02:46:41.542Z,11.60
2022-09-12T02:49:42.868Z,10.32
2022-09-12T02:52:44.427Z,9.82
2022-09-12T02:55:45.872Z,8.93
2022-09-12T02:58:47.701Z,8.95
2022-09-12T03:01:56.730Z,11.93
2022-09-12T03:05:30.496Z,7.60
2022-09-12T03:08:31.912Z,7.95
2022-09-12T03:11:45.760Z,11.05
2022-09-12T03:15:05.869Z,10.98
2022-09-12T03:18:10.078Z,8.77
2022-09-12T03:21:20.217Z,12.20
2022-09-12T03:24:25.562Z,9.73
2022-09-12T03:27:33.134Z,9.60
2022-09-12T03:30:41.603Z,9.68
2022-09-12T03:33:43.025Z,11.77
2022-09-12T03:36:44.302Z,10.32
2022-09-12T03:39:45.676Z,10.45
2022-09-12T03:42:46.987Z,12.60
2022-09-12T03:45:50.212Z,9.40
2022-09-12T03:48:51.675Z,7.78
2022-09-12T03:51:52.884Z,9.52
2022-09-12T03:54:54.296Z,9.93
2022-09-12T03:57:55.786Z,10.50
2022-09-12T04:00:57.193Z,7.78
2022-09-12T04:03:58.553Z,8.25
2022-09-12T04:06:59.807Z,8.75
2022-09-12T04:10:01.037Z,6.93
2022-09-12T04:13:02.326Z,9.23
2022-09-12T04:16:04.556Z,8.18
2022-09-12T04:19:05.807Z,12.23
2022-09-12T04:22:07.101Z,9.48
2022-09-12T04:25:09.444Z,8.70
2022-09-12T04:28:10.712Z,10.20
2022-09-12T04:31:17.604Z,9.32
2022-09-12T04:34:19.426Z,12.55
2022-09-12T04:37:21.145Z,13.82
2022-09-12T04:40:22.590Z,9.13
2022-09-12T04:43:23.867Z,9.38
2022-09-12T04:46:25.794Z,12.93
2022-09-12T04:49:27.028Z,13.70
2022-09-12T04:52:28.406Z,11.43
2022-09-12T04:55:29.650Z,8.23
2022-09-12T04:58:31.479Z,8.93
2022-09-12T05:01:32.952Z,8.95
2022-09-12T05:04:34.876Z,9.13
2022-09-12T05:07:36.153Z,9.57
2022-09-12T05:10:38.378Z,8.30
2022-09-12T05:13:40.087Z,9.05
2022-09-12T05:16:42.846Z,10.95
2022-09-12T05:19:45.451Z,11.25
2022-09-12T05:22:46.682Z,14.43
2022-09-12T05:25:52.387Z,11.35
2022-09-12T05:28:54.087Z,11.73
2022-09-12T05:31:55.474Z,16.50
2022-09-12T05:34:56.705Z,12.80
2022-09-12T05:37:57.952Z,16.08
2022-09-12T05:41:03.678Z,17.17
2022-09-12T05:44:06.007Z,16.20
2022-09-12T05:47:07.234Z,19.02
2022-09-12T05:50:10.959Z,15.25
2022-09-12T05:53:12.316Z,19.80
2022-09-12T05:56:17.875Z,18.35
2022-09-12T05:59:20.231Z,16.65
2022-09-12T06:02:21.609Z,15.80
2022-09-12T06:05:22.901Z,13.07
2022-09-12T06:08:24.128Z,14.43
2022-09-12T06:11:26.298Z,17.95
2022-09-12T06:14:27.633Z,14.70
2022-09-12T06:17:28.872Z,16.33
2022-09-12T06:20:30.433Z,16.05
2022-09-12T06:23:31.857Z,14.55
2022-09-12T06:26:33.246Z,11.93
2022-09-12T06:29:34.495Z,14.02
2022-09-12T06:32:35.950Z,16.33
2022-09-12T06:35:38.187Z,15.38
2022-09-12T06:38:40.210Z,14.80
2022-09-12T06:41:44.076Z,13.90
2022-09-12T06:47:46.856Z,12.63
2022-09-12T06:50:58.493Z,13.00
2022-09-12T06:53:59.759Z,11.35
2022-09-12T06:57:01.035Z,12.75
2022-09-12T07:00:04.359Z,12.95
2022-09-12T07:03:05.623Z,12.00
2022-09-12T07:06:08.437Z,12.35
2022-09-12T07:09:11.127Z,12.65
2022-09-12T07:12:12.552Z,12.07
2022-09-12T07:15:13.830Z,13.23
2022-09-12T07:18:16.131Z,11.98
2022-09-12T07:21:17.437Z,11.55
2022-09-12T07:24:18.698Z,13.45
2022-09-12T07:27:19.930Z,8.57
2022-09-12T07:30:22.222Z,9.77
2022-09-12T07:33:24.832Z,9.02
2022-09-12T07:36:26.086Z,6.78
2022-09-12T07:39:27.326Z,8.63
2022-09-12T07:42:28.761Z,7.28
2022-09-12T07:45:30.053Z,6.88
2022-09-12T07:48:31.313Z,6.60
2022-09-12T07:51:32.565Z,7.03
2022-09-12T07:54:33.872Z,8.43
2022-09-12T07:57:35.093Z,7.38
2022-09-12T08:00:37.769Z,8.27
2022-09-12T08:03:39.552Z,7.90
2022-09-12T08:06:40.907Z,7.03
2022-09-12T08:09:42.205Z,6.75
2022-09-12T08:12:43.446Z,7.93
2022-09-12T08:15:44.762Z,7.07
2022-09-12T08:18:46.059Z,9.18
2022-09-12T08:21:47.310Z,7.68
2022-09-12T08:24:48.988Z,8.15
2022-09-12T08:27:50.270Z,6.05
2022-09-12T08:30:52.001Z,9.00
2022-09-12T08:33:56.675Z,7.07
2022-09-12T08:36:57.970Z,6.40
2022-09-12T08:39:59.467Z,7.50
2022-09-12T08:43:10.949Z,7.32
2022-09-12T08:46:16.089Z,6.63
2022-09-12T08:49:27.113Z,7.68
2022-09-12T08:52:28.366Z,9.63
2022-09-12T08:55:34.723Z,7.03
2022-09-12T08:58:39.557Z,7.25
2022-09-12T09:01:42.800Z,6.88
2022-09-12T09:08:01.722Z,7.45
2022-09-12T09:11:07.608Z,7.07
2022-09-12T09:14:30.913Z,7.63
2022-09-12T09:17:32.103Z,7.13
2022-09-12T09:20:33.473Z,6.90
2022-09-12T09:23:34.775Z,6.38
2022-09-12T09:26:47.278Z,5.80
2022-09-12T09:29:50.446Z,6.10
2022-09-12T09:36:01.958Z,7.45
2022-09-12T09:39:06.054Z,6.28
2022-09-12T09:42:10.133Z,6.50
2022-09-12T09:45:15.525Z,6.22
2022-09-12T09:48:19.241Z,5.25
2022-09-12T09:51:26.985Z,4.65
2022-09-12T09:54:33.554Z,4.18
2022-09-12T09:57:34.874Z,4.68
2022-09-12T10:00:36.901Z,4.28
2022-09-12T10:03:39.038Z,4.53
2022-09-12T10:06:40.750Z,4.50
2022-09-12T10:09:41.987Z,6.85
2022-09-12T10:12:43.574Z,4.05
2022-09-12T10:15:55.707Z,4.47
2022-09-12T10:19:01.508Z,3.92
2022-09-12T10:22:04.036Z,3.92
2022-09-12T10:25:11.107Z,4.40
2022-09-12T10:28:19.727Z,4.45
2022-09-12T10:31:28.875Z,3.88
2022-09-12T10:34:34.309Z,3.80
2022-09-12T10:37:37.307Z,4.10
2022-09-12T10:43:40.667Z,3.75
2022-09-12T10:46:42.021Z,3.72
2022-09-12T10:49:43.257Z,4.03
2022-09-12T10:52:44.518Z,4.40
2022-09-12T10:56:06.915Z,3.83
2022-09-12T11:02:12.227Z,4.25
2022-09-12T11:05:36.543Z,3.97
2022-09-12T11:08:37.811Z,3.35
2022-09-12T11:11:43.721Z,3.08
2022-09-12T11:14:57.228Z,4.13
2022-09-12T11:18:17.065Z,6.80
2022-09-12T11:21:20.742Z,3.15
2022-09-12T11:24:27.890Z,3.25
2022-09-12T11:27:29.167Z,3.47
2022-09-12T11:30:47.392Z,3.50
2022-09-12T11:33:56.105Z,3.58
2022-09-12T11:37:12.581Z,3.90
2022-09-12T11:40:27.677Z,3.28
2022-09-12T11:43:47.959Z,3.08
2022-09-12T11:46:51.920Z,2.95
2022-09-12T11:49:54.536Z,3.50
2022-09-12T11:52:57.737Z,3.45
2022-09-12T11:55:59.013Z,3.90
2022-09-12T11:59:09.440Z,3.78
2022-09-12T12:02:19.403Z,2.78
2022-09-12T12:05:20.689Z,2.90
2022-09-12T12:08:25.951Z,2.47
2022-09-12T12:11:29.723Z,2.50
2022-09-12T12:14:37.470Z,2.60
2022-09-12T12:17:38.731Z,2.65
2022-09-12T12:20:40.142Z,2.72
2022-09-12T12:24:01.393Z,2.92
2022-09-12T12:27:04.009Z,2.55
2022-09-12T12:30:25.273Z,3.10
2022-09-12T12:33:26.891Z,3.08
2022-09-12T12:36:33.928Z,2.90
2022-09-12T12:39:38.354Z,3.13
2022-09-12T12:42:39.923Z,3.10
2022-09-12T12:45:41.175Z,3.22
2022-09-12T12:49:01.514Z,3.00
2022-09-12T12:52:02.898Z,2.88
2022-09-12T12:55:04.744Z,2.97
2022-09-12T12:58:07.298Z,2.90
2022-09-12T13:01:13.468Z,2.90
2022-09-12T13:04:17.061Z,3.53
2022-09-12T13:07:27.296Z,2.50
2022-09-12T13:10:29.730Z,4.88
2022-09-12T13:13:38.615Z,3.08
2022-09-12T13:16:52.074Z,3.35
2022-09-12T13:20:10.862Z,2.78
2022-09-12T13:26:23.779Z,2.40
2022-09-12T13:29:25.949Z,2.42
2022-09-12T13:32:27.205Z,2.58
2022-09-12T13:35:42.839Z,2.53
2022-09-12T13:41:48.212Z,2.83
2022-09-12T13:45:02.040Z,2.63
2022-09-12T13:48:04.389Z,2.83
2022-09-12T13:51:06.072Z,3.20
2022-09-12T13:54:07.321Z,3.22
2022-09-12T13:57:27.003Z,2.70
2022-09-12T14:00:29.439Z,2.65
2022-09-12T14:03:50.488Z,2.22
2022-09-12T14:06:52.528Z,2.45
2022-09-12T14:09:56.029Z,3.28
2022-09-12T14:12:58.722Z,2.65
2022-09-12T14:19:01.797Z,2.00
2022-09-12T14:22:03.084Z,2.22
2022-09-12T14:25:05.104Z,2.20
2022-09-12T14:28:06.588Z,2.03
2022-09-12T14:31:21.473Z,2.33
2022-09-12T14:34:22.763Z,2.67
2022-09-12T14:37:24.903Z,2.85
2022-09-12T14:40:26.532Z,2.10
2022-09-12T14:43:29.352Z,2.50
2022-09-12T14:49:36.812Z,2.85
2022-09-12T14:52:40.005Z,2.40
2022-09-12T14:55:43.063Z,3.25
2022-09-12T14:58:44.321Z,2.05
2022-09-12T15:01:45.945Z,2.10
2022-09-12T15:04:50.227Z,2.60
2022-09-12T15:07:53.910Z,2.30
2022-09-12T15:10:55.698Z,2.05
2022-09-12T15:13:57.079Z,2.03
2022-09-12T15:16:58.352Z,2.10
2022-09-12T15:19:59.594Z,2.15
2022-09-12T15:23:00.846Z,2.60
2022-09-12T15:26:02.556Z,2.45
2022-09-12T15:29:03.815Z,2.20
2022-09-12T15:32:06.145Z,2.20
2022-09-12T15:35:22.234Z,2.20
2022-09-12T15:38:26.547Z,2.13
2022-09-12T15:41:30.998Z,2.45
2022-09-12T15:44:32.277Z,1.85
2022-09-12T15:47:33.532Z,2.00
2022-09-12T15:50:35.316Z,2.03
2022-09-12T15:53:36.603Z,2.50
2022-09-12T15:56:38.217Z,2.20
2022-09-12T15:59:39.489Z,2.03
2022-09-12T16:02:41.195Z,2.00
2022-09-12T16:05:42.474Z,2.30
2022-09-12T16:08:43.918Z,1.90
2022-09-12T16:11:45.518Z,2.65
2022-09-12T16:14:46.771Z,2.30
2022-09-12T16:17:48.207Z,2.50
2022-09-12T16:20:53.094Z,2.13
2022-09-12T16:23:54.351Z,2.20
2022-09-12T16:27:00.429Z,2.30
2022-09-12T16:30:02.805Z,2.15
2022-09-12T16:33:04.204Z,2.35
2022-09-12T16:36:13.271Z,1.92
2022-09-12T16:39:14.679Z,2.33
2022-09-12T16:42:19.208Z,2.03
2022-09-12T16:45:20.501Z,2.20
2022-09-12T16:48:21.790Z,3.38
2022-09-12T16:51:24.442Z,2.22
2022-09-12T16:54:25.735Z,2.58
2022-09-12T16:57:27.006Z,3.33
2022-09-12T17:00:28.219Z,2.55
2022-09-12T17:03:29.727Z,2.03
2022-09-12T17:06:32.697Z,3.50
2022-09-12T17:09:36.307Z,2.97
2022-09-12T17:15:38.899Z,3.08
2022-09-12T17:18:40.242Z,5.53
2022-09-12T17:21:41.538Z,2.55
2022-09-12T17:24:42.897Z,3.05
2022-09-12T17:27:44.130Z,2.90
2022-09-12T17:30:45.862Z,3.63
2022-09-12T17:33:47.380Z,2.95
2022-09-12T17:36:48.836Z,3.63
2022-09-12T17:39:50.170Z,3.40
2022-09-12T17:42:51.467Z,3.40
2022-09-12T17:45:57.249Z,2.72
2022-09-12T17:48:58.883Z,4.13
2022-09-12T17:52:01.911Z,3.55
2022-09-12T17:55:03.592Z,3.95
2022-09-12T17:58:04.991Z,5.07
2022-09-12T18:01:34.267Z,4.53
2022-09-12T18:04:35.561Z,3.50
2022-09-12T18:07:38.977Z,2.90
2022-09-12T18:10:43.455Z,4.65
2022-09-12T18:13:44.902Z,3.67
2022-09-12T18:16:46.401Z,4.28
2022-09-12T18:19:53.832Z,3.58
2022-09-12T18:22:55.370Z,3.90
2022-09-12T18:25:57.517Z,3.88
2022-09-12T18:28:59.003Z,2.97
2022-09-12T18:32:00.338Z,3.70
2022-09-12T18:35:01.603Z,4.20
2022-09-12T18:38:02.827Z,4.65
2022-09-12T18:41:08.472Z,3.78
2022-09-12T18:44:10.789Z,3.53
2022-09-12T18:47:12.027Z,3.17
2022-09-12T18:50:13.294Z,3.08
2022-09-12T18:53:15.006Z,3.50
2022-09-12T18:56:16.273Z,4.13
2022-09-12T18:59:17.642Z,3.70
2022-09-12T19:02:18.988Z,3.22
2022-09-12T19:05:20.268Z,2.83
2022-09-12T19:08:21.522Z,3.63
2022-09-12T19:11:23.282Z,3.38
2022-09-12T19:14:26.565Z,4.50
2022-09-12T19:17:27.832Z,3.72
2022-09-12T19:20:29.128Z,3.58
2022-09-12T19:23:32.278Z,4.60
2022-09-12T19:26:33.808Z,3.72
2022-09-12T19:29:35.063Z,3.10
2022-09-12T19:32:36.281Z,3.30
2022-09-12T19:35:37.524Z,5.63
2022-09-12T19:38:39.623Z,3.80
2022-09-12T19:41:41.122Z,4.25
2022-09-12T19:44:42.359Z,3.85
2022-09-12T19:47:44.310Z,3.42
2022-09-12T19:50:46.064Z,3.60
2022-09-12T19:53:47.723Z,2.85
2022-09-12T19:56:49.022Z,4.10
2022-09-12T19:59:50.343Z,3.70
2022-09-12T20:02:51.951Z,3.95
2022-09-12T20:05:53.270Z,5.22
2022-09-12T20:08:54.794Z,4.22
2022-09-12T20:11:56.068Z,4.97
2022-09-12T20:14:57.384Z,4.70
2022-09-12T20:17:58.733Z,5.95
2022-09-12T20:21:06.603Z,5.25
2022-09-12T20:24:12.092Z,5.72
2022-09-12T20:27:13.338Z,4.30
2022-09-12T20:30:15.063Z,4.10
2022-09-12T20:33:16.291Z,5.35
2022-09-12T20:36:19.075Z,4.22
2022-09-12T20:39:21.951Z,4.53
2022-09-12T20:42:23.254Z,4.38
2022-09-12T20:45:24.546Z,4.47
2022-09-12T20:48:25.794Z,4.85
2022-09-12T20:51:27.221Z,4.80
2022-09-12T20:54:28.488Z,4.07
2022-09-12T20:57:29.753Z,6.13
2022-09-12T21:00:31.234Z,4.35
2022-09-12T21:03:32.501Z,5.75
2022-09-12T21:06:34.061Z,4.53
2022-09-12T21:09:35.362Z,4.95
2022-09-12T21:12:36.580Z,5.07
2022-09-12T21:15:38.438Z,4.35
2022-09-12T21:18:41.078Z,5.15
2022-09-12T21:21:42.575Z,5.45
2022-09-12T21:24:44.135Z,5.40
2022-09-12T21:27:45.393Z,4.38
2022-09-12T21:30:51.366Z,5.47
2022-09-12T21:33:52.726Z,5.03
2022-09-12T21:36:53.947Z,5.60
2022-09-12T21:39:55.328Z,4.55
2022-09-12T21:42:56.651Z,5.30
2022-09-12T21:46:01.495Z,5.00
2022-09-12T21:49:02.936Z,4.45
2022-09-12T21:52:04.185Z,4.30
2022-09-12T21:55:05.745Z,5.45
2022-09-12T21:58:06.975Z,5.97
2022-09-12T22:01:10.505Z,6.22
2022-09-12T22:04:11.763Z,5.93
2022-09-12T22:07:13.009Z,5.63
2022-09-12T22:10:15.097Z,5.45
2022-09-12T22:13:16.391Z,8.82
2022-09-12T22:16:17.753Z,4.88
2022-09-12T22:19:19.577Z,5.13
2022-09-12T22:22:39.701Z,4.43
2022-09-12T22:25:41.011Z,5.25
2022-09-12T22:28:42.921Z,5.28
2022-09-12T22:31:44.536Z,6.05
2022-09-12T22:34:45.969Z,6.00
2022-09-12T22:37:47.739Z,4.70
2022-09-12T22:40:48.986Z,4.30
2022-09-12T22:43:50.229Z,6.43
2022-09-12T22:46:51.931Z,6.43
2022-09-12T22:49:53.578Z,5.25
2022-09-12T22:52:55.011Z,5.13
2022-09-12T22:55:56.371Z,4.63
2022-09-12T22:58:58.419Z,6.97
2022-09-12T23:01:59.857Z,4.53
2022-09-12T23:05:01.107Z,4.43
2022-09-12T23:08:02.492Z,6.00
2022-09-12T23:11:11.422Z,5.03
2022-09-12T23:14:12.650Z,4.68
2022-09-12T23:17:13.900Z,4.88
2022-09-12T23:20:15.156Z,3.97
2022-09-12T23:23:16.434Z,7.07
2022-09-12T23:26:19.172Z,5.07
2022-09-12T23:29:20.467Z,5.00
2022-09-12T23:32:21.717Z,4.80
2022-09-12T23:35:22.971Z,4.75
2022-09-12T23:38:24.511Z,4.57
2022-09-12T23:41:25.788Z,6.13
2022-09-12T23:44:27.026Z,5.32
2022-09-12T23:47:28.322Z,5.47
2022-09-12T23:50:29.573Z,5.07
2022-09-12T23:53:31.065Z,6.53
2022-09-12T23:56:32.306Z,5.90
2022-09-12T23:59:33.551Z,4.75
